Terminal Aerodrome Forecast
Issued by NWS Buffalo, NY

Home | Current Version | Previous Version | Text Only | Print | Product List | Glossary On
Versions: 1 2 3 4 5 6 7 8 9 10 11 12 13 14 15 16 17 18 19 20 21 22 23 24 25
000
FTUS41 KBUF 311730
TAFROC
TAF
KROC 311730Z 3118/0118 23013KT P6SM SCT060
     FM312000 24014G21KT P6SM SCT060
     FM010000 24010KT P6SM BKN060
     FM010300 23008KT P6SM VCSH BKN050
     FM010800 23005KT P6SM SCT050
     FM011400 25011KT P6SM SCT050
     FM011700 26014G20KT P6SM BKN050=

USA.gov is the U.S. government's official web portal to all federal, state and local government web resources and services.